sensor_id;sensor_type;location;lat;lon;timestamp;P1;durP1;ratioP1;P2;durP2;ratioP2
60869;SDS011;46710;43.680;4.132;2022-09-09T00:03:32;2.50;;;2.30;;
60869;SDS011;46710;43.680;4.132;2022-09-09T00:08:44;5.18;;;2.80;;
60869;SDS011;46710;43.680;4.132;2022-09-09T00:11:12;3.42;;;2.30;;
60869;SDS011;46710;43.680;4.132;2022-09-09T00:13:44;5.37;;;2.35;;
60869;SDS011;46710;43.680;4.132;2022-09-09T00:16:15;3.85;;;2.70;;
60869;SDS011;46710;43.680;4.132;2022-09-09T00:21:18;4.07;;;2.08;;
60869;SDS011;46710;43.680;4.132;2022-09-09T00:23:45;3.03;;;2.12;;
60869;SDS011;46710;43.680;4.132;2022-09-09T00:28:43;3.65;;;2.10;;
60869;SDS011;46710;43.680;4.132;2022-09-09T00:31:13;5.47;;;2.62;;
60869;SDS011;46710;43.680;4.132;2022-09-09T00:33:39;4.65;;;2.35;;
60869;SDS011;46710;43.680;4.132;2022-09-09T00:36:09;4.62;;;2.30;;
60869;SDS011;46710;43.680;4.132;2022-09-09T00:41:19;5.68;;;2.60;;
60869;SDS011;46710;43.680;4.132;2022-09-09T00:43:55;3.25;;;2.42;;
60869;SDS011;46710;43.680;4.132;2022-09-09T00:48:54;2.85;;;1.87;;
60869;SDS011;46710;43.680;4.132;2022-09-09T00:51:26;5.15;;;2.20;;
60869;SDS011;46710;43.680;4.132;2022-09-09T00:56:25;4.28;;;2.35;;
60869;SDS011;46710;43.680;4.132;2022-09-09T00:59:03;4.50;;;2.50;;
60869;SDS011;46710;43.680;4.132;2022-09-09T01:01:32;3.58;;;2.67;;
60869;SDS011;46710;43.680;4.132;2022-09-09T01:03:58;4.50;;;2.50;;
60869;SDS011;46710;43.680;4.132;2022-09-09T01:09:00;5.22;;;2.58;;
60869;SDS011;46710;43.680;4.132;2022-09-09T01:11:32;5.70;;;2.70;;
60869;SDS011;46710;43.680;4.132;2022-09-09T01:14:47;2.85;;;2.17;;
60869;SDS011;46710;43.680;4.132;2022-09-09T01:16:46;5.28;;;2.47;;
60869;SDS011;46710;43.680;4.132;2022-09-09T01:19:15;4.12;;;2.50;;
60869;SDS011;46710;43.680;4.132;2022-09-09T01:26:45;4.97;;;2.20;;
60869;SDS011;46710;43.680;4.132;2022-09-09T01:29:13;5.00;;;2.65;;
60869;SDS011;46710;43.680;4.132;2022-09-09T01:31:43;3.10;;;2.03;;
60869;SDS011;46710;43.680;4.132;2022-09-09T01:34:17;3.42;;;2.08;;
60869;SDS011;46710;43.680;4.132;2022-09-09T01:39:16;2.60;;;2.33;;
60869;SDS011;46710;43.680;4.132;2022-09-09T01:41:42;3.58;;;2.35;;
60869;SDS011;46710;43.680;4.132;2022-09-09T01:44:08;3.60;;;2.50;;
60869;SDS011;46710;43.680;4.132;2022-09-09T01:46:35;4.25;;;1.95;;
60869;SDS011;46710;43.680;4.132;2022-09-09T01:49:02;3.60;;;1.80;;
60869;SDS011;46710;43.680;4.132;2022-09-09T01:51:29;4.40;;;2.15;;
60869;SDS011;46710;43.680;4.132;2022-09-09T01:53:55;4.07;;;2.00;;
60869;SDS011;46710;43.680;4.132;2022-09-09T02:06:50;2.60;;;1.80;;
60869;SDS011;46710;43.680;4.132;2022-09-09T02:09:19;1.98;;;1.77;;
60869;SDS011;46710;43.680;4.132;2022-09-09T02:11:48;2.83;;;1.50;;
60869;SDS011;46710;43.680;4.132;2022-09-09T02:14:19;2.53;;;1.60;;
60869;SDS011;46710;43.680;4.132;2022-09-09T02:16:49;3.05;;;1.70;;
60869;SDS011;46710;43.680;4.132;2022-09-09T02:21:50;2.53;;;2.00;;
60869;SDS011;46710;43.680;4.132;2022-09-09T02:24:18;3.37;;;1.67;;
60869;SDS011;46710;43.680;4.132;2022-09-09T02:26:45;5.80;;;1.80;;
60869;SDS011;46710;43.680;4.132;2022-09-09T02:29:14;5.20;;;1.60;;
60869;SDS011;46710;43.680;4.132;2022-09-09T02:31:41;4.03;;;1.35;;
60869;SDS011;46710;43.680;4.132;2022-09-09T02:34:09;6.10;;;2.10;;
60869;SDS011;46710;43.680;4.132;2022-09-09T02:36:36;2.80;;;1.60;;
60869;SDS011;46710;43.680;4.132;2022-09-09T02:39:05;2.95;;;1.55;;
60869;SDS011;46710;43.680;4.132;2022-09-09T02:41:34;4.10;;;1.73;;
60869;SDS011;46710;43.680;4.132;2022-09-09T02:44:01;3.75;;;1.75;;
60869;SDS011;46710;43.680;4.132;2022-09-09T02:49:06;3.95;;;1.83;;
60869;SDS011;46710;43.680;4.132;2022-09-09T02:51:40;4.60;;;1.70;;
60869;SDS011;46710;43.680;4.132;2022-09-09T02:54:16;2.45;;;1.42;;
60869;SDS011;46710;43.680;4.132;2022-09-09T02:56:46;3.05;;;1.50;;
60869;SDS011;46710;43.680;4.132;2022-09-09T02:59:15;6.95;;;1.50;;
60869;SDS011;46710;43.680;4.132;2022-09-09T03:01:41;3.62;;;1.45;;
60869;SDS011;46710;43.680;4.132;2022-09-09T03:04:09;2.80;;;1.30;;
60869;SDS011;46710;43.680;4.132;2022-09-09T03:06:35;4.62;;;1.52;;
60869;SDS011;46710;43.680;4.132;2022-09-09T03:09:01;4.40;;;1.30;;
60869;SDS011;46710;43.680;4.132;2022-09-09T03:11:28;3.47;;;1.58;;
60869;SDS011;46710;43.680;4.132;2022-09-09T03:13:54;2.90;;;1.23;;
60869;SDS011;46710;43.680;4.132;2022-09-09T03:16:21;3.95;;;1.35;;
60869;SDS011;46710;43.680;4.132;2022-09-09T03:18:47;2.80;;;1.40;;
60869;SDS011;46710;43.680;4.132;2022-09-09T03:21:14;3.28;;;1.20;;
60869;SDS011;46710;43.680;4.132;2022-09-09T03:23:40;2.30;;;1.30;;
60869;SDS011;46710;43.680;4.132;2022-09-09T03:26:06;1.87;;;1.30;;
60869;SDS011;46710;43.680;4.132;2022-09-09T03:28:32;1.50;;;1.10;;
60869;SDS011;46710;43.680;4.132;2022-09-09T03:31:00;3.70;;;1.48;;
60869;SDS011;46710;43.680;4.132;2022-09-09T03:33:27;3.75;;;1.25;;
60869;SDS011;46710;43.680;4.132;2022-09-09T03:35:54;4.30;;;1.40;;
60869;SDS011;46710;43.680;4.132;2022-09-09T03:38:24;4.22;;;1.30;;
60869;SDS011;46710;43.680;4.132;2022-09-09T03:40:51;1.27;;;1.17;;
60869;SDS011;46710;43.680;4.132;2022-09-09T03:43:20;3.08;;;1.73;;
60869;SDS011;46710;43.680;4.132;2022-09-09T03:45:46;1.85;;;1.30;;
60869;SDS011;46710;43.680;4.132;2022-09-09T03:48:13;2.15;;;1.30;;
60869;SDS011;46710;43.680;4.132;2022-09-09T03:50:50;4.78;;;1.58;;
60869;SDS011;46710;43.680;4.132;2022-09-09T03:53:17;4.05;;;1.67;;
60869;SDS011;46710;43.680;4.132;2022-09-09T03:55:47;3.75;;;1.60;;
60869;SDS011;46710;43.680;4.132;2022-09-09T03:58:14;3.37;;;1.30;;
60869;SDS011;46710;43.680;4.132;2022-09-09T04:00:40;1.77;;;1.30;;
60869;SDS011;46710;43.680;4.132;2022-09-09T04:03:09;2.45;;;1.52;;
60869;SDS011;46710;43.680;4.132;2022-09-09T04:05:36;4.22;;;1.62;;
60869;SDS011;46710;43.680;4.132;2022-09-09T04:08:07;3.08;;;1.30;;
60869;SDS011;46710;43.680;4.132;2022-09-09T04:10:34;2.97;;;1.40;;
60869;SDS011;46710;43.680;4.132;2022-09-09T04:13:03;6.05;;;1.60;;
60869;SDS011;46710;43.680;4.132;2022-09-09T04:15:30;2.60;;;1.48;;
60869;SDS011;46710;43.680;4.132;2022-09-09T04:17:56;1.92;;;1.50;;
60869;SDS011;46710;43.680;4.132;2022-09-09T04:20:22;2.67;;;1.70;;
60869;SDS011;46710;43.680;4.132;2022-09-09T04:22:48;1.92;;;1.50;;
60869;SDS011;46710;43.680;4.132;2022-09-09T04:25:14;2.45;;;1.50;;
60869;SDS011;46710;43.680;4.132;2022-09-09T04:27:40;4.10;;;1.70;;
60869;SDS011;46710;43.680;4.132;2022-09-09T04:30:07;2.45;;;1.50;;
60869;SDS011;46710;43.680;4.132;2022-09-09T04:32:34;3.67;;;1.40;;
60869;SDS011;46710;43.680;4.132;2022-09-09T04:35:02;2.83;;;1.58;;
60869;SDS011;46710;43.680;4.132;2022-09-09T04:37:28;4.30;;;1.50;;
60869;SDS011;46710;43.680;4.132;2022-09-09T04:39:54;6.68;;;1.55;;
60869;SDS011;46710;43.680;4.132;2022-09-09T04:42:21;2.35;;;1.45;;
60869;SDS011;46710;43.680;4.132;2022-09-09T04:44:47;6.35;;;2.08;;
60869;SDS011;46710;43.680;4.132;2022-09-09T04:47:13;2.12;;;1.45;;
60869;SDS011;46710;43.680;4.132;2022-09-09T04:49:39;2.22;;;1.48;;
60869;SDS011;46710;43.680;4.132;2022-09-09T04:52:06;5.07;;;1.67;;
60869;SDS011;46710;43.680;4.132;2022-09-09T04:54:32;3.37;;;1.75;;
60869;SDS011;46710;43.680;4.132;2022-09-09T04:56:58;5.47;;;1.70;;
60869;SDS011;46710;43.680;4.132;2022-09-09T04:59:24;3.15;;;1.60;;
60869;SDS011;46710;43.680;4.132;2022-09-09T05:01:50;3.67;;;1.83;;
60869;SDS011;46710;43.680;4.132;2022-09-09T05:04:16;2.55;;;1.40;;
60869;SDS011;46710;43.680;4.132;2022-09-09T05:06:44;3.47;;;1.60;;
60869;SDS011;46710;43.680;4.132;2022-09-09T05:09:10;4.35;;;1.55;;
60869;SDS011;46710;43.680;4.132;2022-09-09T05:11:37;5.18;;;1.60;;
60869;SDS011;46710;43.680;4.132;2022-09-09T05:14:03;2.72;;;1.40;;
60869;SDS011;46710;43.680;4.132;2022-09-09T05:16:30;4.43;;;1.70;;
60869;SDS011;46710;43.680;4.132;2022-09-09T05:18:56;3.03;;;1.33;;
60869;SDS011;46710;43.680;4.132;2022-09-09T05:21:25;5.93;;;2.12;;
60869;SDS011;46710;43.680;4.132;2022-09-09T05:23:51;2.70;;;1.50;;
60869;SDS011;46710;43.680;4.132;2022-09-09T05:26:18;3.53;;;1.75;;
60869;SDS011;46710;43.680;4.132;2022-09-09T05:28:45;3.45;;;1.50;;
60869;SDS011;46710;43.680;4.132;2022-09-09T05:31:12;3.30;;;1.50;;
60869;SDS011;46710;43.680;4.132;2022-09-09T05:33:39;5.28;;;1.55;;
60869;SDS011;46710;43.680;4.132;2022-09-09T05:36:07;5.57;;;1.55;;
60869;SDS011;46710;43.680;4.132;2022-09-09T05:38:35;3.67;;;1.52;;
60869;SDS011;46710;43.680;4.132;2022-09-09T05:41:03;1.45;;;1.10;;
60869;SDS011;46710;43.680;4.132;2022-09-09T05:43:29;2.58;;;1.33;;
60869;SDS011;46710;43.680;4.132;2022-09-09T05:46:10;3.03;;;1.62;;
60869;SDS011;46710;43.680;4.132;2022-09-09T05:48:38;3.17;;;1.40;;
60869;SDS011;46710;43.680;4.132;2022-09-09T05:51:04;5.50;;;1.60;;
60869;SDS011;46710;43.680;4.132;2022-09-09T05:53:34;5.35;;;1.60;;
60869;SDS011;46710;43.680;4.132;2022-09-09T05:56:01;4.40;;;1.95;;
60869;SDS011;46710;43.680;4.132;2022-09-09T05:58:29;2.92;;;1.40;;
60869;SDS011;46710;43.680;4.132;2022-09-09T06:01:08;3.60;;;1.95;;
60869;SDS011;46710;43.680;4.132;2022-09-09T06:03:35;2.85;;;1.27;;
60869;SDS011;46710;43.680;4.132;2022-09-09T06:06:02;2.80;;;1.50;;
60869;SDS011;46710;43.680;4.132;2022-09-09T06:08:32;4.10;;;1.40;;
60869;SDS011;46710;43.680;4.132;2022-09-09T06:11:02;2.25;;;1.37;;
60869;SDS011;46710;43.680;4.132;2022-09-09T06:13:28;2.58;;;1.40;;
60869;SDS011;46710;43.680;4.132;2022-09-09T06:15:55;3.72;;;1.98;;
60869;SDS011;46710;43.680;4.132;2022-09-09T06:18:21;7.55;;;2.00;;
60869;SDS011;46710;43.680;4.132;2022-09-09T06:20:54;1.95;;;1.75;;
60869;SDS011;46710;43.680;4.132;2022-09-09T06:23:20;2.95;;;1.58;;
60869;SDS011;46710;43.680;4.132;2022-09-09T06:25:46;2.22;;;1.45;;
60869;SDS011;46710;43.680;4.132;2022-09-09T06:28:14;1.73;;;1.48;;
60869;SDS011;46710;43.680;4.132;2022-09-09T06:30:40;2.30;;;1.40;;
60869;SDS011;46710;43.680;4.132;2022-09-09T06:33:06;2.55;;;1.75;;
60869;SDS011;46710;43.680;4.132;2022-09-09T06:35:32;4.72;;;1.23;;
60869;SDS011;46710;43.680;4.132;2022-09-09T06:37:58;4.53;;;1.48;;
60869;SDS011;46710;43.680;4.132;2022-09-09T06:40:24;3.35;;;1.55;;
60869;SDS011;46710;43.680;4.132;2022-09-09T06:42:50;1.65;;;1.30;;
60869;SDS011;46710;43.680;4.132;2022-09-09T06:45:17;2.17;;;1.50;;
60869;SDS011;46710;43.680;4.132;2022-09-09T06:47:43;2.42;;;1.67;;
60869;SDS011;46710;43.680;4.132;2022-09-09T06:50:09;2.55;;;1.60;;
60869;SDS011;46710;43.680;4.132;2022-09-09T06:52:36;4.57;;;1.58;;
60869;SDS011;46710;43.680;4.132;2022-09-09T06:55:02;3.60;;;1.95;;
60869;SDS011;46710;43.680;4.132;2022-09-09T06:57:28;4.05;;;1.85;;
60869;SDS011;46710;43.680;4.132;2022-09-09T06:59:55;2.45;;;1.60;;
60869;SDS011;46710;43.680;4.132;2022-09-09T07:02:21;2.28;;;1.77;;
60869;SDS011;46710;43.680;4.132;2022-09-09T07:04:47;2.53;;;1.20;;
60869;SDS011;46710;43.680;4.132;2022-09-09T07:07:16;1.77;;;1.30;;
60869;SDS011;46710;43.680;4.132;2022-09-09T07:09:42;4.35;;;2.03;;
60869;SDS011;46710;43.680;4.132;2022-09-09T07:12:10;2.72;;;1.70;;
60869;SDS011;46710;43.680;4.132;2022-09-09T07:14:37;3.72;;;1.60;;
60869;SDS011;46710;43.680;4.132;2022-09-09T07:17:04;2.62;;;1.70;;
60869;SDS011;46710;43.680;4.132;2022-09-09T07:19:30;4.53;;;1.50;;
60869;SDS011;46710;43.680;4.132;2022-09-09T07:21:56;4.05;;;1.52;;
60869;SDS011;46710;43.680;4.132;2022-09-09T07:24:22;7.65;;;5.47;;
60869;SDS011;46710;43.680;4.132;2022-09-09T07:26:48;5.90;;;3.28;;
60869;SDS011;46710;43.680;4.132;2022-09-09T07:29:14;9.00;;;6.65;;
60869;SDS011;46710;43.680;4.132;2022-09-09T07:31:41;4.95;;;2.50;;
60869;SDS011;46710;43.680;4.132;2022-09-09T07:34:08;2.30;;;1.60;;
60869;SDS011;46710;43.680;4.132;2022-09-09T07:36:35;2.60;;;1.42;;
60869;SDS011;46710;43.680;4.132;2022-09-09T07:39:04;3.72;;;1.58;;
60869;SDS011;46710;43.680;4.132;2022-09-09T07:43:59;2.83;;;1.80;;
60869;SDS011;46710;43.680;4.132;2022-09-09T07:46:25;3.85;;;1.65;;
60869;SDS011;46710;43.680;4.132;2022-09-09T07:48:53;3.08;;;1.48;;
60869;SDS011;46710;43.680;4.132;2022-09-09T07:51:23;4.05;;;1.17;;
60869;SDS011;46710;43.680;4.132;2022-09-09T07:53:56;2.20;;;1.48;;
60869;SDS011;46710;43.680;4.132;2022-09-09T07:56:23;2.05;;;1.15;;
60869;SDS011;46710;43.680;4.132;2022-09-09T07:58:50;2.42;;;1.23;;
60869;SDS011;46710;43.680;4.132;2022-09-09T08:01:21;1.20;;;1.10;;
60869;SDS011;46710;43.680;4.132;2022-09-09T08:03:52;2.62;;;1.40;;
60869;SDS011;46710;43.680;4.132;2022-09-09T08:06:18;1.40;;;1.30;;
60869;SDS011;46710;43.680;4.132;2022-09-09T08:08:45;1.90;;;1.40;;
60869;SDS011;46710;43.680;4.132;2022-09-09T08:11:15;4.62;;;2.80;;
60869;SDS011;46710;43.680;4.132;2022-09-09T08:13:42;3.70;;;1.65;;
60869;SDS011;46710;43.680;4.132;2022-09-09T08:16:10;2.05;;;1.45;;
60869;SDS011;46710;43.680;4.132;2022-09-09T08:18:37;2.67;;;1.10;;
60869;SDS011;46710;43.680;4.132;2022-09-09T08:21:04;2.28;;;0.80;;
60869;SDS011;46710;43.680;4.132;2022-09-09T08:23:30;1.52;;;1.00;;
60869;SDS011;46710;43.680;4.132;2022-09-09T08:26:02;1.10;;;0.88;;
60869;SDS011;46710;43.680;4.132;2022-09-09T08:28:29;2.12;;;1.08;;
60869;SDS011;46710;43.680;4.132;2022-09-09T08:30:56;1.62;;;0.80;;
60869;SDS011;46710;43.680;4.132;2022-09-09T08:33:22;2.75;;;1.90;;
60869;SDS011;46710;43.680;4.132;2022-09-09T08:35:50;2.45;;;0.73;;
60869;SDS011;46710;43.680;4.132;2022-09-09T08:38:17;2.08;;;0.70;;
60869;SDS011;46710;43.680;4.132;2022-09-09T08:40:44;0.93;;;0.82;;
60869;SDS011;46710;43.680;4.132;2022-09-09T08:43:14;0.95;;;0.90;;
60869;SDS011;46710;43.680;4.132;2022-09-09T08:46:16;1.90;;;1.00;;
60869;SDS011;46710;43.680;4.132;2022-09-09T08:48:49;1.20;;;0.85;;
60869;SDS011;46710;43.680;4.132;2022-09-09T08:51:17;1.62;;;0.95;;
60869;SDS011;46710;43.680;4.132;2022-09-09T08:53:45;1.23;;;0.82;;
60869;SDS011;46710;43.680;4.132;2022-09-09T08:56:16;1.20;;;0.82;;
60869;SDS011;46710;43.680;4.132;2022-09-09T09:08:51;0.70;;;0.70;;
60869;SDS011;46710;43.680;4.132;2022-09-09T09:11:21;1.20;;;1.10;;
60869;SDS011;46710;43.680;4.132;2022-09-09T09:14:30;1.75;;;1.10;;
60869;SDS011;46710;43.680;4.132;2022-09-09T09:19:13;1.20;;;1.08;;
60869;SDS011;46710;43.680;4.132;2022-09-09T09:21:43;0.95;;;0.90;;
60869;SDS011;46710;43.680;4.132;2022-09-09T09:24:19;1.00;;;0.90;;
60869;SDS011;46710;43.680;4.132;2022-09-09T09:26:46;0.98;;;0.98;;
60869;SDS011;46710;43.680;4.132;2022-09-09T09:29:13;2.30;;;1.20;;
60869;SDS011;46710;43.680;4.132;2022-09-09T09:31:53;1.15;;;0.85;;
60869;SDS011;46710;43.680;4.132;2022-09-09T09:34:21;2.42;;;0.98;;
60869;SDS011;46710;43.680;4.132;2022-09-09T09:36:56;0.95;;;0.80;;
60869;SDS011;46710;43.680;4.132;2022-09-09T09:39:29;1.27;;;1.02;;
60869;SDS011;46710;43.680;4.132;2022-09-09T09:41:55;1.17;;;0.80;;
60869;SDS011;46710;43.680;4.132;2022-09-09T09:44:26;1.08;;;0.95;;
60869;SDS011;46710;43.680;4.132;2022-09-09T09:47:04;0.90;;;0.90;;
60869;SDS011;46710;43.680;4.132;2022-09-09T09:49:34;1.45;;;1.10;;
60869;SDS011;46710;43.680;4.132;2022-09-09T09:52:01;1.90;;;0.82;;
60869;SDS011;46710;43.680;4.132;2022-09-09T09:54:28;2.30;;;0.77;;
60869;SDS011;46710;43.680;4.132;2022-09-09T09:56:55;1.50;;;1.00;;
60869;SDS011;46710;43.680;4.132;2022-09-09T10:01:53;2.75;;;1.08;;
60869;SDS011;46710;43.680;4.132;2022-09-09T10:04:21;2.12;;;1.10;;
60869;SDS011;46710;43.680;4.132;2022-09-09T10:06:48;2.37;;;0.90;;
60869;SDS011;46710;43.680;4.132;2022-09-09T10:09:22;0.80;;;0.70;;
60869;SDS011;46710;43.680;4.132;2022-09-09T10:11:56;2.70;;;2.20;;
60869;SDS011;46710;43.680;4.132;2022-09-09T10:14:36;4.62;;;4.22;;
60869;SDS011;46710;43.680;4.132;2022-09-09T10:19:35;3.20;;;2.35;;
60869;SDS011;46710;43.680;4.132;2022-09-09T10:40:34;1.60;;;1.35;;
60869;SDS011;46710;43.680;4.132;2022-09-09T10:48:19;1.35;;;1.00;;
60869;SDS011;46710;43.680;4.132;2022-09-09T10:53:21;1.45;;;1.10;;
60869;SDS011;46710;43.680;4.132;2022-09-09T10:55:51;1.77;;;0.90;;
60869;SDS011;46710;43.680;4.132;2022-09-09T10:58:21;0.90;;;0.90;;
60869;SDS011;46710;43.680;4.132;2022-09-09T11:00:49;1.42;;;1.10;;
60869;SDS011;46710;43.680;4.132;2022-09-09T11:03:20;1.45;;;1.10;;
60869;SDS011;46710;43.680;4.132;2022-09-09T11:05:49;1.20;;;1.08;;
60869;SDS011;46710;43.680;4.132;2022-09-09T11:08:18;1.67;;;1.20;;
60869;SDS011;46710;43.680;4.132;2022-09-09T11:11:04;1.85;;;1.10;;
60869;SDS011;46710;43.680;4.132;2022-09-09T11:13:39;0.95;;;0.95;;
60869;SDS011;46710;43.680;4.132;2022-09-09T11:18:43;1.02;;;0.88;;
60869;SDS011;46710;43.680;4.132;2022-09-09T11:21:21;3.10;;;1.30;;
60869;SDS011;46710;43.680;4.132;2022-09-09T11:23:58;1.60;;;1.20;;
60869;SDS011;46710;43.680;4.132;2022-09-09T11:26:30;1.12;;;0.80;;
60869;SDS011;46710;43.680;4.132;2022-09-09T11:41:46;1.25;;;0.90;;
60869;SDS011;46710;43.680;4.132;2022-09-09T11:44:12;1.92;;;0.90;;
60869;SDS011;46710;43.680;4.132;2022-09-09T11:46:39;1.12;;;0.80;;
60869;SDS011;46710;43.680;4.132;2022-09-09T11:49:21;1.45;;;1.05;;
60869;SDS011;46710;43.680;4.132;2022-09-09T11:51:51;1.37;;;0.93;;
60869;SDS011;46710;43.680;4.132;2022-09-09T11:56:54;2.60;;;0.90;;
60869;SDS011;46710;43.680;4.132;2022-09-09T11:59:31;1.67;;;1.30;;
60869;SDS011;46710;43.680;4.132;2022-09-09T12:09:22;0.90;;;0.82;;
60869;SDS011;46710;43.680;4.132;2022-09-09T12:11:49;0.80;;;0.80;;
60869;SDS011;46710;43.680;4.132;2022-09-09T12:14:22;1.58;;;0.90;;
60869;SDS011;46710;43.680;4.132;2022-09-09T12:16:48;2.22;;;1.05;;
60869;SDS011;46710;43.680;4.132;2022-09-09T12:19:18;1.60;;;1.00;;
60869;SDS011;46710;43.680;4.132;2022-09-09T12:21:46;1.05;;;0.98;;
60869;SDS011;46710;43.680;4.132;2022-09-09T12:24:37;1.00;;;0.90;;
60869;SDS011;46710;43.680;4.132;2022-09-09T12:27:11;1.00;;;0.93;;
60869;SDS011;46710;43.680;4.132;2022-09-09T12:34:46;0.77;;;0.70;;
60869;SDS011;46710;43.680;4.132;2022-09-09T12:39:44;1.40;;;0.90;;
60869;SDS011;46710;43.680;4.132;2022-09-09T12:42:16;1.08;;;0.80;;
60869;SDS011;46710;43.680;4.132;2022-09-09T12:44:50;0.85;;;0.80;;
60869;SDS011;46710;43.680;4.132;2022-09-09T12:47:16;4.18;;;1.20;;
60869;SDS011;46710;43.680;4.132;2022-09-09T12:49:44;1.70;;;0.75;;
60869;SDS011;46710;43.680;4.132;2022-09-09T12:52:14;0.95;;;0.95;;
60869;SDS011;46710;43.680;4.132;2022-09-09T12:54:45;1.58;;;0.95;;
60869;SDS011;46710;43.680;4.132;2022-09-09T12:57:12;1.58;;;1.10;;
60869;SDS011;46710;43.680;4.132;2022-09-09T12:59:40;3.17;;;1.00;;
60869;SDS011;46710;43.680;4.132;2022-09-09T13:04:45;1.33;;;1.05;;
60869;SDS011;46710;43.680;4.132;2022-09-09T13:07:12;1.25;;;0.90;;
60869;SDS011;46710;43.680;4.132;2022-09-09T13:09:38;1.05;;;0.82;;
60869;SDS011;46710;43.680;4.132;2022-09-09T13:12:05;0.95;;;0.90;;
60869;SDS011;46710;43.680;4.132;2022-09-09T13:14:35;1.60;;;1.02;;
60869;SDS011;46710;43.680;4.132;2022-09-09T13:17:03;3.50;;;1.10;;
60869;SDS011;46710;43.680;4.132;2022-09-09T13:19:31;2.67;;;1.37;;
60869;SDS011;46710;43.680;4.132;2022-09-09T13:21:58;2.22;;;1.20;;
60869;SDS011;46710;43.680;4.132;2022-09-09T13:24:32;2.08;;;1.20;;
60869;SDS011;46710;43.680;4.132;2022-09-09T13:26:59;1.55;;;1.12;;
60869;SDS011;46710;43.680;4.132;2022-09-09T13:29:28;1.55;;;0.80;;
60869;SDS011;46710;43.680;4.132;2022-09-09T13:32:04;5.12;;;3.22;;
60869;SDS011;46710;43.680;4.132;2022-09-09T13:34:32;12.68;;;10.98;;
60869;SDS011;46710;43.680;4.132;2022-09-09T13:37:05;16.77;;;14.00;;
60869;SDS011;46710;43.680;4.132;2022-09-09T13:39:33;50.63;;;43.87;;
60869;SDS011;46710;43.680;4.132;2022-09-09T13:42:01;22.83;;;17.20;;
60869;SDS011;46710;43.680;4.132;2022-09-09T13:44:35;8.38;;;6.28;;
60869;SDS011;46710;43.680;4.132;2022-09-09T13:47:03;2.45;;;1.62;;
60869;SDS011;46710;43.680;4.132;2022-09-09T13:49:30;17.50;;;11.82;;
60869;SDS011;46710;43.680;4.132;2022-09-09T13:52:11;21.27;;;14.15;;
60869;SDS011;46710;43.680;4.132;2022-09-09T13:54:38;18.33;;;11.82;;
60869;SDS011;46710;43.680;4.132;2022-09-09T13:57:04;13.45;;;8.23;;
60869;SDS011;46710;43.680;4.132;2022-09-09T13:59:31;5.43;;;3.50;;
60869;SDS011;46710;43.680;4.132;2022-09-09T14:01:57;4.55;;;3.25;;
60869;SDS011;46710;43.680;4.132;2022-09-09T14:04:24;14.80;;;10.68;;
60869;SDS011;46710;43.680;4.132;2022-09-09T14:06:50;5.35;;;4.20;;
60869;SDS011;46710;43.680;4.132;2022-09-09T14:09:17;3.03;;;2.15;;
60869;SDS011;46710;43.680;4.132;2022-09-09T14:11:43;2.33;;;1.62;;
60869;SDS011;46710;43.680;4.132;2022-09-09T14:14:11;3.12;;;1.30;;
60869;SDS011;46710;43.680;4.132;2022-09-09T14:16:37;0.80;;;0.80;;
60869;SDS011;46710;43.680;4.132;2022-09-09T14:19:03;1.05;;;0.85;;
60869;SDS011;46710;43.680;4.132;2022-09-09T14:21:29;1.23;;;0.80;;
60869;SDS011;46710;43.680;4.132;2022-09-09T14:23:55;0.80;;;0.65;;
60869;SDS011;46710;43.680;4.132;2022-09-09T14:26:23;0.50;;;0.50;;
60869;SDS011;46710;43.680;4.132;2022-09-09T14:28:49;1.02;;;0.80;;
60869;SDS011;46710;43.680;4.132;2022-09-09T14:31:16;0.60;;;0.60;;
60869;SDS011;46710;43.680;4.132;2022-09-09T14:33:43;0.60;;;0.60;;
60869;SDS011;46710;43.680;4.132;2022-09-09T14:36:09;0.62;;;0.60;;
60869;SDS011;46710;43.680;4.132;2022-09-09T14:38:36;0.68;;;0.50;;
60869;SDS011;46710;43.680;4.132;2022-09-09T14:41:07;0.50;;;0.50;;
60869;SDS011;46710;43.680;4.132;2022-09-09T14:43:34;0.80;;;0.52;;
60869;SDS011;46710;43.680;4.132;2022-09-09T14:46:04;1.12;;;0.60;;
60869;SDS011;46710;43.680;4.132;2022-09-09T14:48:30;1.02;;;0.60;;
60869;SDS011;46710;43.680;4.132;2022-09-09T14:50:56;9.25;;;3.40;;
60869;SDS011;46710;43.680;4.132;2022-09-09T14:53:23;26.17;;;9.40;;
60869;SDS011;46710;43.680;4.132;2022-09-09T14:55:49;0.70;;;0.62;;
60869;SDS011;46710;43.680;4.132;2022-09-09T14:58:15;0.88;;;0.70;;
60869;SDS011;46710;43.680;4.132;2022-09-09T15:00:41;1.33;;;0.82;;
60869;SDS011;46710;43.680;4.132;2022-09-09T15:03:07;1.33;;;0.70;;
60869;SDS011;46710;43.680;4.132;2022-09-09T15:05:35;1.87;;;0.60;;
60869;SDS011;46710;43.680;4.132;2022-09-09T15:08:02;0.80;;;0.62;;
60869;SDS011;46710;43.680;4.132;2022-09-09T15:10:28;0.60;;;0.60;;
60869;SDS011;46710;43.680;4.132;2022-09-09T15:12:56;1.25;;;0.60;;
60869;SDS011;46710;43.680;4.132;2022-09-09T15:15:22;0.65;;;0.62;;
60869;SDS011;46710;43.680;4.132;2022-09-09T15:17:48;0.60;;;0.60;;
60869;SDS011;46710;43.680;4.132;2022-09-09T15:20:14;1.02;;;0.60;;
60869;SDS011;46710;43.680;4.132;2022-09-09T15:22:41;0.62;;;0.50;;
60869;SDS011;46710;43.680;4.132;2022-09-09T15:25:07;0.50;;;0.50;;
60869;SDS011;46710;43.680;4.132;2022-09-09T15:27:34;0.50;;;0.50;;
60869;SDS011;46710;43.680;4.132;2022-09-09T15:30:00;1.77;;;0.60;;
60869;SDS011;46710;43.680;4.132;2022-09-09T15:32:26;0.88;;;0.70;;
60869;SDS011;46710;43.680;4.132;2022-09-09T15:34:53;1.30;;;0.60;;
60869;SDS011;46710;43.680;4.132;2022-09-09T15:37:19;1.37;;;0.57;;
60869;SDS011;46710;43.680;4.132;2022-09-09T15:39:45;1.50;;;0.95;;
60869;SDS011;46710;43.680;4.132;2022-09-09T15:42:11;2.00;;;0.80;;
60869;SDS011;46710;43.680;4.132;2022-09-09T15:44:40;0.68;;;0.60;;
60869;SDS011;46710;43.680;4.132;2022-09-09T15:47:07;0.88;;;0.70;;
60869;SDS011;46710;43.680;4.132;2022-09-09T15:49:34;0.80;;;0.50;;
60869;SDS011;46710;43.680;4.132;2022-09-09T15:52:00;1.45;;;0.60;;
60869;SDS011;46710;43.680;4.132;2022-09-09T15:54:33;0.62;;;0.60;;
60869;SDS011;46710;43.680;4.132;2022-09-09T15:57:00;0.50;;;0.50;;
60869;SDS011;46710;43.680;4.132;2022-09-09T15:59:28;1.55;;;0.80;;
60869;SDS011;46710;43.680;4.132;2022-09-09T16:01:55;1.05;;;0.50;;
60869;SDS011;46710;43.680;4.132;2022-09-09T16:04:21;1.27;;;0.47;;
60869;SDS011;46710;43.680;4.132;2022-09-09T16:06:51;3.42;;;0.45;;
60869;SDS011;46710;43.680;4.132;2022-09-09T16:09:18;0.60;;;0.50;;
60869;SDS011;46710;43.680;4.132;2022-09-09T16:11:45;1.67;;;0.70;;
60869;SDS011;46710;43.680;4.132;2022-09-09T16:14:12;0.82;;;0.60;;
60869;SDS011;46710;43.680;4.132;2022-09-09T16:16:38;1.23;;;0.73;;
60869;SDS011;46710;43.680;4.132;2022-09-09T16:19:06;2.05;;;0.50;;
60869;SDS011;46710;43.680;4.132;2022-09-09T16:21:41;1.25;;;0.60;;
60869;SDS011;46710;43.680;4.132;2022-09-09T16:24:09;2.03;;;0.65;;
60869;SDS011;46710;43.680;4.132;2022-09-09T16:26:36;1.50;;;0.77;;
60869;SDS011;46710;43.680;4.132;2022-09-09T16:29:03;0.80;;;0.60;;
60869;SDS011;46710;43.680;4.132;2022-09-09T16:31:29;1.75;;;0.50;;
60869;SDS011;46710;43.680;4.132;2022-09-09T16:33:57;0.70;;;0.50;;
60869;SDS011;46710;43.680;4.132;2022-09-09T16:36:24;1.62;;;0.75;;
60869;SDS011;46710;43.680;4.132;2022-09-09T16:38:55;1.52;;;0.68;;
60869;SDS011;46710;43.680;4.132;2022-09-09T16:41:22;0.50;;;0.50;;
60869;SDS011;46710;43.680;4.132;2022-09-09T16:43:52;1.35;;;0.70;;
60869;SDS011;46710;43.680;4.132;2022-09-09T16:46:19;1.90;;;0.60;;
60869;SDS011;46710;43.680;4.132;2022-09-09T16:48:46;0.95;;;0.60;;
60869;SDS011;46710;43.680;4.132;2022-09-09T16:51:17;0.40;;;0.40;;
60869;SDS011;46710;43.680;4.132;2022-09-09T16:53:43;2.05;;;1.10;;
60869;SDS011;46710;43.680;4.132;2022-09-09T16:56:13;1.92;;;1.20;;
60869;SDS011;46710;43.680;4.132;2022-09-09T16:58:40;1.33;;;0.98;;
60869;SDS011;46710;43.680;4.132;2022-09-09T17:01:08;1.55;;;1.02;;